Time;durP1;ratioP1;P1;durP2;ratioP2;P2;SDS_P1;SDS_P2;PMS_P1;PMS_P2;Temp;Humidity;BMP_temperature;BMP_pressure;BME280_temperature;BME280_humidity;BME280_pressure;Samples;Min_cycle;Max_cycle;Signal;HPM_P1;HPM_P2
2023/03/05 00:00:51;;;;;;;4.63;1.10;;;4.40;99.90;;;;;;6155693;23;20047;-77
2023/03/05 00:03:17;;;;;;;3.05;0.90;;;4.40;99.90;;;;;;6132622;23;20052;-77
2023/03/05 00:05:43;;;;;;;4.80;1.25;;;4.30;99.90;;;;;;6154866;23;20021;-77
2023/03/05 00:08:08;;;;;;;2.42;0.70;;;3.40;99.90;;;;;;6157312;23;20036;-78
2023/03/05 00:10:34;;;;;;;3.30;0.90;;;4.20;99.90;;;;;;6130077;23;20017;-77
2023/03/05 00:13:00;;;;;;;7.30;1.30;;;4.20;99.90;;;;;;6180624;23;20071;-77
2023/03/05 00:15:25;;;;;;;3.90;0.77;;;4.20;99.90;;;;;;6146791;23;20107;-79
2023/03/05 00:17:51;;;;;;;5.05;0.82;;;4.20;99.90;;;;;;6156860;23;20376;-78
2023/03/05 00:20:17;;;;;;;4.50;0.80;;;4.50;99.90;;;;;;6181374;23;20332;-77
2023/03/05 00:22:42;;;;;;;4.57;0.88;;;4.20;99.90;;;;;;6204510;23;20020;-78
2023/03/05 00:25:08;;;;;;;2.05;0.70;;;4.20;99.90;;;;;;6181042;23;20033;-77
2023/03/05 00:27:34;;;;;;;3.25;0.82;;;4.20;99.90;;;;;;6155216;23;20024;-77
2023/03/05 00:30:00;;;;;;;5.03;0.90;;;4.20;99.90;;;;;;6180237;23;20016;-77
2023/03/05 00:32:25;;;;;;;2.33;0.82;;;4.20;99.90;;;;;;6179515;23;20039;-79
2023/03/05 00:34:51;;;;;;;1.90;0.60;;;3.50;99.90;;;;;;6155505;23;20076;-78
2023/03/05 00:37:17;;;;;;;2.92;0.60;;;4.10;99.90;;;;;;6130795;23;20114;-77
2023/03/05 00:39:43;;;;;;;6.40;1.38;;;4.10;99.90;;;;;;6179971;23;20027;-77
2023/03/05 00:42:08;;;;;;;3.95;0.93;;;4.10;99.90;;;;;;6180093;23;20035;-79
2023/03/05 00:44:34;;;;;;;5.18;1.10;;;4.00;99.90;;;;;;6180112;23;20044;-78
2023/03/05 00:47:00;;;;;;;5.65;1.25;;;4.00;99.90;;;;;;6181059;23;20700;-77
2023/03/05 00:49:26;;;;;;;7.63;1.10;;;4.00;99.90;;;;;;6179633;23;20767;-79
2023/03/05 00:51:51;;;;;;;8.13;1.25;;;4.10;99.90;;;;;;6155240;23;20452;-77
2023/03/05 00:54:17;;;;;;;6.95;1.05;;;3.90;99.90;;;;;;6180325;23;20079;-76
2023/03/05 00:56:43;;;;;;;5.03;1.40;;;3.90;99.90;;;;;;6179919;23;20016;-77
2023/03/05 00:59:09;;;;;;;5.13;0.85;;;3.90;99.90;;;;;;6204810;23;20487;-78
2023/03/05 01:01:35;;;;;;;6.30;0.90;;;3.90;99.90;;;;;;6154871;23;20089;-77
2023/03/05 01:04:01;;;;;;;6.85;1.15;;;4.10;99.90;;;;;;6204442;23;20017;-77
2023/03/05 01:06:28;;;;;;;7.03;1.13;;;3.90;99.90;;;;;;6180603;23;20024;-79
2023/03/05 01:08:55;;;;;;;4.47;1.10;;;4.00;99.90;;;;;;6205019;23;20021;-77
2023/03/05 01:11:21;;;;;;;7.75;1.10;;;3.90;99.90;;;;;;6179673;23;20478;-79
2023/03/05 01:13:47;;;;;;;6.53;1.35;;;3.90;99.90;;;;;;6203712;23;20016;-78
2023/03/05 01:16:12;;;;;;;4.50;1.10;;;4.00;99.90;;;;;;6155850;23;20345;-77
2023/03/05 01:18:39;;;;;;;6.22;1.10;;;4.70;99.90;;;;;;6154392;23;20062;-76
2023/03/05 01:21:06;;;;;;;5.40;1.50;;;4.10;99.90;;;;;;6155178;23;20059;-77
2023/03/05 01:23:33;;;;;;;4.25;1.05;;;4.10;99.90;;;;;;6178806;23;20112;-78
2023/03/05 01:25:59;;;;;;;4.93;1.40;;;4.10;99.90;;;;;;6156264;23;20078;-77
2023/03/05 01:28:25;;;;;;;4.07;1.25;;;4.10;99.90;;;;;;6155712;23;20401;-77
2023/03/05 01:30:51;;;;;;;2.38;0.85;;;4.20;99.90;;;;;;6179652;23;20017;-77
2023/03/05 01:33:17;;;;;;;3.20;0.80;;;4.10;99.90;;;;;;6155614;23;20400;-80
2023/03/05 01:35:46;;;;;;;5.68;1.20;;;4.10;99.90;;;;;;6154781;23;20507;-76
2023/03/05 01:38:12;;;;;;;5.00;0.95;;;4.10;99.90;;;;;;6180308;23;20398;-77
2023/03/05 01:40:38;;;;;;;7.68;1.30;;;4.10;99.90;;;;;;6179354;23;20020;-77
2023/03/05 01:43:13;;;;;;;4.72;0.90;;;4.00;99.90;;;;;;6179593;23;20016;-78
2023/03/05 01:46:17;;;;;;;2.95;0.65;;;3.80;99.90;;;;;;6179783;23;20479;-77
2023/03/05 01:49:21;;;;;;;3.92;1.10;;;4.00;99.90;;;;;;6178353;23;20024;-77
2023/03/05 01:51:56;;;;;;;7.60;1.58;;;3.90;99.90;;;;;;6164421;23;20400;-77
2023/03/05 01:54:28;;;;;;;5.50;1.27;;;4.10;99.90;;;;;;6179150;23;20070;-77
2023/03/05 01:56:57;;;;;;;5.10;1.80;;;3.90;99.90;;;;;;6179078;23;20020;-78
2023/03/05 01:59:25;;;;;;;3.25;1.10;;;3.90;99.90;;;;;;6178630;23;20024;-77
2023/03/05 02:01:55;;;;;;;3.55;1.38;;;3.90;99.90;;;;;;6154770;23;20448;-77
2023/03/05 02:04:26;;;;;;;4.22;0.95;;;3.90;99.90;;;;;;6181130;23;20057;-78
2023/03/05 02:06:52;;;;;;;3.15;0.90;;;3.90;99.90;;;;;;6155855;23;20017;-77
2023/03/05 02:09:22;;;;;;;3.53;0.60;;;3.80;99.90;;;;;;6156755;23;20258;-78
2023/03/05 02:11:48;;;;;;;4.45;0.90;;;3.80;99.90;;;;;;6131900;23;20590;-77
2023/03/05 02:14:14;;;;;;;5.75;1.73;;;3.80;99.90;;;;;;6132880;23;20150;-77
2023/03/05 02:16:41;;;;;;;1.58;0.80;;;4.30;99.90;;;;;;6180264;23;20103;-77
2023/03/05 02:19:09;;;;;;;5.63;1.05;;;3.80;99.90;;;;;;6206402;23;20017;-77
2023/03/05 02:21:45;;;;;;;3.33;0.80;;;3.80;99.90;;;;;;6206407;23;20369;-78
2023/03/05 02:24:13;;;;;;;4.15;0.90;;;3.70;99.90;;;;;;6206673;23;20035;-77
2023/03/05 02:26:39;;;;;;;2.22;0.80;;;3.80;99.90;;;;;;6205614;23;20025;-77
2023/03/05 02:29:08;;;;;;;2.08;0.80;;;3.70;99.90;;;;;;6206537;23;20024;-79
2023/03/05 02:31:34;;;;;;;4.45;0.80;;;3.70;99.90;;;;;;6206387;23;20384;-81
2023/03/05 02:34:00;;;;;;;4.43;0.90;;;3.70;99.90;;;;;;6180252;23;20025;-80
2023/03/05 02:36:25;;;;;;;2.38;0.70;;;3.60;99.90;;;;;;6181280;23;20020;-80
2023/03/05 02:38:52;;;;;;;2.38;0.65;;;3.60;99.90;;;;;;6205688;23;20025;-77
2023/03/05 02:41:18;;;;;;;4.88;1.00;;;3.60;99.90;;;;;;6156778;23;20742;-77
2023/03/05 02:43:44;;;;;;;4.30;1.05;;;3.60;99.90;;;;;;6205972;23;20059;-77
2023/03/05 02:46:09;;;;;;;6.07;1.20;;;3.60;99.90;;;;;;6181980;23;20711;-77
2023/03/05 02:48:35;;;;;;;7.90;1.40;;;3.60;99.90;;;;;;6181155;23;20202;-78
2023/03/05 02:51:03;;;;;;;5.10;1.08;;;3.60;99.90;;;;;;6205435;23;20555;-76
2023/03/05 02:53:29;;;;;;;6.43;1.13;;;3.60;99.90;;;;;;6206037;23;20025;-77
2023/03/05 02:55:54;;;;;;;6.47;1.30;;;3.60;99.90;;;;;;6180043;23;20410;-76
2023/03/05 02:58:20;;;;;;;5.45;1.13;;;3.60;99.90;;;;;;6131958;23;20119;-79
2023/03/05 03:00:46;;;;;;;5.22;1.10;;;3.60;99.90;;;;;;6205267;23;20100;-78
2023/03/05 03:03:12;;;;;;;10.50;1.55;;;3.60;99.90;;;;;;6181589;23;20131;-78
2023/03/05 03:05:38;;;;;;;5.47;1.02;;;3.90;99.90;;;;;;6205533;23;20031;-79
2023/03/05 03:08:04;;;;;;;6.70;1.00;;;3.60;99.90;;;;;;6180994;23;20016;-78
2023/03/05 03:10:30;;;;;;;4.70;1.00;;;3.60;99.90;;;;;;6205439;23;20013;-77
2023/03/05 03:12:56;;;;;;;4.05;0.77;;;3.80;99.90;;;;;;6180471;23;20559;-77
2023/03/05 03:15:22;;;;;;;5.93;0.88;;;3.60;99.90;;;;;;6180296;23;20051;-77
2023/03/05 03:17:47;;;;;;;4.10;0.77;;;3.60;99.90;;;;;;6180596;23;20056;-77
2023/03/05 03:20:16;;;;;;;3.63;0.73;;;3.60;99.90;;;;;;6205527;23;20020;-77
2023/03/05 03:22:43;;;;;;;6.50;1.23;;;3.60;99.90;;;;;;6206392;23;20027;-79
2023/03/05 03:25:15;;;;;;;8.90;1.20;;;3.60;99.90;;;;;;6205891;23;20017;-77
2023/03/05 03:27:41;;;;;;;7.82;1.10;;;3.50;99.90;;;;;;6206255;23;20012;-79
2023/03/05 03:30:08;;;;;;;3.83;0.88;;;3.50;99.90;;;;;;6204879;23;20321;-77
2023/03/05 03:32:34;;;;;;;3.00;1.10;;;3.50;99.90;;;;;;6205999;23;20025;-77
2023/03/05 03:35:00;;;;;;;6.13;1.17;;;3.50;99.90;;;;;;6179968;23;20025;-77
2023/03/05 03:37:26;;;;;;;2.13;0.75;;;3.50;99.90;;;;;;6156207;23;20058;-76
2023/03/05 03:39:51;;;;;;;2.72;0.65;;;3.50;99.90;;;;;;6179232;23;20031;-77
2023/03/05 03:42:20;;;;;;;0.90;0.60;;;3.40;99.90;;;;;;6206271;23;20075;-76
2023/03/05 03:44:46;;;;;;;3.40;0.73;;;3.40;99.90;;;;;;6204996;23;20016;-78
2023/03/05 03:47:12;;;;;;;3.33;0.70;;;2.90;99.90;;;;;;6205533;23;20387;-77
2023/03/05 03:49:38;;;;;;;3.30;0.80;;;3.70;99.90;;;;;;6130796;23;20017;-77
2023/03/05 03:52:04;;;;;;;2.75;0.65;;;3.40;99.90;;;;;;6179564;23;20024;-77
2023/03/05 03:54:30;;;;;;;1.15;0.70;;;3.40;99.90;;;;;;6206209;23;20017;-77
2023/03/05 03:56:56;;;;;;;2.85;0.90;;;3.40;99.90;;;;;;6179557;23;20397;-77
2023/03/05 03:59:22;;;;;;;3.00;1.00;;;3.40;99.90;;;;;;6180505;23;20032;-77
2023/03/05 04:01:47;;;;;;;3.10;0.88;;;3.40;99.90;;;;;;6180277;23;20095;-79
2023/03/05 04:04:13;;;;;;;4.47;1.00;;;3.40;99.90;;;;;;6180739;23;20017;-77
2023/03/05 04:06:39;;;;;;;3.92;1.17;;;3.50;99.90;;;;;;6180772;23;20039;-77
2023/03/05 04:09:07;;;;;;;7.20;1.90;;;3.50;99.90;;;;;;6204418;23;20135;-77
2023/03/05 04:11:33;;;;;;;4.13;1.30;;;3.70;99.90;;;;;;6205013;23;20020;-78
2023/03/05 04:13:59;;;;;;;3.47;0.68;;;3.50;99.90;;;;;;6204936;23;20024;-77
2023/03/05 04:16:25;;;;;;;3.00;0.88;;;3.50;99.90;;;;;;6130620;23;20016;-77
2023/03/05 04:18:51;;;;;;;2.25;0.70;;;3.50;99.90;;;;;;6154957;23;20021;-77
2023/03/05 04:21:17;;;;;;;1.67;0.80;;;3.50;99.90;;;;;;6156100;23;20020;-79
2023/03/05 04:23:42;;;;;;;8.45;1.52;;;3.40;99.90;;;;;;6156800;23;20395;-79
2023/03/05 04:26:08;;;;;;;4.15;0.93;;;3.40;99.90;;;;;;6130721;23;20519;-78
2023/03/05 04:28:34;;;;;;;3.92;0.80;;;3.40;99.90;;;;;;6131318;23;20059;-78
2023/03/05 04:31:00;;;;;;;2.17;1.13;;;3.30;99.90;;;;;;6154401;23;20027;-77
2023/03/05 04:33:26;;;;;;;6.30;0.88;;;3.40;99.90;;;;;;6132282;23;20047;-77
2023/03/05 04:35:52;;;;;;;5.63;1.13;;;3.30;99.90;;;;;;6155555;23;20025;-80
2023/03/05 04:38:18;;;;;;;1.50;0.68;;;3.40;99.90;;;;;;6156780;23;20025;-78
2023/03/05 04:40:44;;;;;;;3.60;1.08;;;3.40;99.90;;;;;;6179372;23;20027;-78
2023/03/05 04:43:10;;;;;;;2.42;0.73;;;3.60;99.90;;;;;;6130943;23;20452;-78
2023/03/05 04:45:39;;;;;;;5.63;1.08;;;3.40;99.90;;;;;;6131268;23;20082;-78
2023/03/05 04:48:06;;;;;;;4.15;1.02;;;3.40;99.90;;;;;;6180974;23;20021;-79
2023/03/05 04:50:31;;;;;;;7.85;1.25;;;3.40;99.90;;;;;;6180499;23;20115;-77
2023/03/05 04:52:58;;;;;;;5.25;1.27;;;3.40;99.90;;;;;;6131816;23;20417;-77
2023/03/05 04:55:24;;;;;;;5.10;0.80;;;3.40;99.90;;;;;;6131971;23;20031;-77
2023/03/05 04:57:49;;;;;;;4.97;0.80;;;3.40;99.90;;;;;;6156108;23;20016;-79
2023/03/05 05:00:16;;;;;;;3.83;0.77;;;3.50;99.90;;;;;;6155061;23;20111;-80
2023/03/05 05:02:44;;;;;;;4.97;1.00;;;3.50;99.90;;;;;;6129913;23;20017;-79
2023/03/05 05:05:12;;;;;;;6.40;1.35;;;3.50;99.90;;;;;;6154655;23;20020;-80
2023/03/05 05:07:38;;;;;;;4.15;1.10;;;3.50;99.90;;;;;;6179664;23;20027;-79
2023/03/05 05:10:06;;;;;;;6.22;0.95;;;3.50;99.90;;;;;;6154953;23;20334;-79
2023/03/05 05:12:33;;;;;;;4.85;0.90;;;3.50;99.90;;;;;;6154856;23;20106;-79
2023/03/05 05:15:00;;;;;;;3.92;0.90;;;3.50;99.90;;;;;;6162057;23;20024;-78
2023/03/05 05:17:29;;;;;;;3.50;0.88;;;3.50;99.90;;;;;;6181530;23;20028;-77
2023/03/05 05:19:56;;;;;;;5.93;0.93;;;3.50;99.90;;;;;;6204263;23;20048;-81
2023/03/05 05:22:22;;;;;;;4.30;0.93;;;3.50;99.90;;;;;;6206768;23;20111;-79
2023/03/05 05:24:48;;;;;;;4.80;1.13;;;3.40;99.90;;;;;;6182398;23;20027;-77
2023/03/05 05:27:13;;;;;;;4.63;0.90;;;3.40;99.90;;;;;;6205982;23;20203;-77
2023/03/05 05:29:39;;;;;;;4.60;1.10;;;3.40;99.90;;;;;;6181407;23;20326;-77
2023/03/05 05:32:05;;;;;;;3.08;1.00;;;3.50;99.90;;;;;;6206204;23;20024;-78
2023/03/05 05:34:31;;;;;;;4.55;1.02;;;3.50;99.90;;;;;;6207452;23;20020;-78
2023/03/05 05:36:57;;;;;;;2.55;0.80;;;3.50;99.90;;;;;;6182691;23;20075;-78
2023/03/05 05:39:22;;;;;;;2.47;0.70;;;3.40;99.90;;;;;;6182980;23;20017;-77
2023/03/05 05:41:52;;;;;;;1.05;0.50;;;3.40;99.90;;;;;;6159325;23;20021;-77
2023/03/05 05:44:18;;;;;;;1.88;0.70;;;3.40;99.90;;;;;;6209032;23;20047;-77
2023/03/05 05:46:44;;;;;;;2.58;0.77;;;3.40;99.90;;;;;;6183862;23;20079;-78
2023/03/05 05:49:09;;;;;;;2.53;0.82;;;3.40;99.90;;;;;;6182602;23;20808;-77
2023/03/05 05:51:35;;;;;;;5.32;0.95;;;3.30;99.90;;;;;;6182899;23;20082;-77
2023/03/05 05:54:01;;;;;;;4.88;1.00;;;3.30;99.90;;;;;;6208331;23;20025;-77
2023/03/05 05:56:27;;;;;;;2.35;0.80;;;3.20;99.90;;;;;;6183136;23;20027;-77
2023/03/05 05:58:53;;;;;;;7.65;0.98;;;3.20;99.90;;;;;;6207914;23;20402;-77
2023/03/05 06:01:25;;;;;;;5.90;1.00;;;3.50;99.90;;;;;;6159104;23;20032;-77
2023/03/05 06:03:52;;;;;;;4.07;0.85;;;3.40;99.90;;;;;;6208001;23;20406;-77
2023/03/05 06:06:20;;;;;;;7.57;1.15;;;3.20;99.90;;;;;;6183390;23;20024;-77
2023/03/05 06:08:46;;;;;;;4.28;1.17;;;3.20;99.90;;;;;;6182996;23;20017;-78
2023/03/05 06:11:12;;;;;;;3.65;1.00;;;3.20;99.90;;;;;;6208401;23;20365;-77
2023/03/05 06:13:37;;;;;;;5.38;1.00;;;3.20;99.90;;;;;;6208672;23;20452;-77
2023/03/05 06:16:07;;;;;;;2.92;0.95;;;3.40;99.90;;;;;;6133254;23;20082;-77
2023/03/05 06:18:33;;;;;;;5.03;1.17;;;3.20;99.90;;;;;;6209122;23;20025;-77
2023/03/05 06:21:06;;;;;;;4.75;1.27;;;3.20;99.90;;;;;;6133099;23;20048;-79
2023/03/05 06:23:32;;;;;;;7.70;1.02;;;3.30;99.90;;;;;;6208312;23;20024;-77
2023/03/05 06:26:04;;;;;;;6.13;1.20;;;3.20;99.90;;;;;;6207551;23;20052;-79
2023/03/05 06:28:30;;;;;;;5.13;1.67;;;3.30;99.90;;;;;;6209106;23;20017;-78
2023/03/05 06:31:07;;;;;;;3.75;1.40;;;3.50;99.90;;;;;;6182436;23;20022;-77
2023/03/05 06:33:34;;;;;;;5.00;1.20;;;3.30;99.90;;;;;;6208604;23;20028;-77
2023/03/05 06:36:06;;;;;;;8.90;1.50;;;3.40;99.90;;;;;;6182340;23;20107;-77
2023/03/05 06:38:32;;;;;;;8.32;1.15;;;3.30;99.90;;;;;;6183855;23;20023;-77
2023/03/05 06:41:05;;;;;;;5.13;1.23;;;3.40;99.90;;;;;;6182692;23;20344;-77
2023/03/05 06:43:32;;;;;;;3.65;1.20;;;3.40;99.90;;;;;;6208325;23;20028;-77
2023/03/05 06:46:11;;;;;;;8.70;1.67;;;3.70;99.90;;;;;;6208495;23;20066;-77
2023/03/05 06:48:37;;;;;;;5.93;1.42;;;3.40;99.90;;;;;;6207289;23;20028;-77
2023/03/05 06:51:03;;;;;;;7.43;1.50;;;3.30;99.90;;;;;;6158238;23;20050;-77
2023/03/05 06:53:29;;;;;;;6.40;1.77;;;3.30;99.90;;;;;;6208447;23;20103;-77
2023/03/05 06:55:55;;;;;;;3.35;1.42;;;3.30;99.90;;;;;;6232847;23;20038;-77
2023/03/05 06:58:21;;;;;;;4.05;1.08;;;3.30;99.90;;;;;;6207390;23;20016;-77
2023/03/05 07:00:46;;;;;;;8.80;1.65;;;3.30;99.90;;;;;;6182547;23;20027;-77
2023/03/05 07:03:12;;;;;;;7.03;0.95;;;3.50;99.90;;;;;;6182581;23;20340;-77
2023/03/05 07:05:42;;;;;;;3.55;1.10;;;3.20;99.90;;;;;;6207667;23;20020;-77
2023/03/05 07:08:08;;;;;;;2.75;1.08;;;3.30;99.90;;;;;;6182902;23;20372;-78
2023/03/05 07:10:41;;;;;;;5.15;1.25;;;3.20;99.90;;;;;;6207976;23;20025;-77
2023/03/05 07:13:08;;;;;;;5.05;1.08;;;3.30;99.90;;;;;;6208292;23;20499;-77
2023/03/05 07:15:36;;;;;;;3.92;1.15;;;3.30;99.90;;;;;;6207712;23;20056;-76
2023/03/05 07:18:02;;;;;;;5.72;1.33;;;3.70;99.90;;;;;;6206957;23;20082;-79
2023/03/05 07:20:28;;;;;;;5.25;1.30;;;3.30;99.90;;;;;;6183218;23;20092;-77
2023/03/05 07:22:54;;;;;;;6.45;1.35;;;3.40;99.90;;;;;;6184749;23;20024;-78
2023/03/05 07:25:20;;;;;;;4.40;1.17;;;3.40;99.90;;;;;;6180369;23;20027;-78
2023/03/05 07:27:47;;;;;;;5.55;1.23;;;3.40;99.90;;;;;;6205940;23;20017;-81
2023/03/05 07:30:14;;;;;;;6.75;1.60;;;3.50;99.90;;;;;;6206569;23;20047;-83
2023/03/05 07:32:39;;;;;;;6.63;1.40;;;3.50;99.90;;;;;;6207202;23;20715;-81
2023/03/05 07:35:08;;;;;;;6.80;1.60;;;3.70;99.90;;;;;;6207107;23;20083;-79
2023/03/05 07:37:37;;;;;;;8.48;1.52;;;3.70;99.90;;;;;;6209970;23;20021;-82
2023/03/05 07:40:03;;;;;;;4.55;1.30;;;2.50;99.90;;;;;;6209201;23;20432;-83
2023/03/05 07:42:29;;;;;;;10.35;1.77;;;3.80;99.90;;;;;;6207054;23;20071;-83
2023/03/05 07:44:58;;;;;;;8.43;1.17;;;3.90;99.90;;;;;;6208420;23;20020;-83
2023/03/05 07:47:34;;;;;;;3.78;1.15;;;2.80;99.90;;;;;;6181749;23;20024;-83
2023/03/05 07:50:00;;;;;;;3.55;1.25;;;4.30;99.90;;;;;;6205751;23;20340;-80
2023/03/05 07:52:27;;;;;;;4.15;1.10;;;4.10;99.90;;;;;;6154170;23;20016;-80
2023/03/05 07:54:52;;;;;;;7.40;1.33;;;4.20;99.90;;;;;;6180551;23;20574;-82
2023/03/05 07:57:18;;;;;;;7.28;1.70;;;5.30;99.90;;;;;;6203004;23;20104;-81
2023/03/05 07:59:44;;;;;;;9.32;1.40;;;4.30;99.90;;;;;;6206407;23;20464;-80
2023/03/05 08:02:12;;;;;;;6.90;1.50;;;4.40;99.90;;;;;;6180653;23;20020;-82
2023/03/05 08:04:38;;;;;;;5.97;2.75;;;4.40;99.90;;;;;;6182013;23;20103;-80
2023/03/05 08:07:04;;;;;;;4.03;1.42;;;4.50;99.90;;;;;;6205930;23;20025;-81
2023/03/05 08:09:30;;;;;;;3.72;0.90;;;4.60;99.90;;;;;;6130516;23;20027;-80
2023/03/05 08:11:56;;;;;;;4.55;1.00;;;4.60;99.90;;;;;;6155857;23;20055;-81
2023/03/05 08:14:22;;;;;;;4.07;1.20;;;4.70;99.90;;;;;;6181334;23;20423;-81
2023/03/05 08:16:53;;;;;;;4.20;1.38;;;4.80;99.90;;;;;;6108625;23;20111;-80
2023/03/05 08:19:20;;;;;;;7.45;1.25;;;4.90;99.90;;;;;;6132855;23;20031;-81
2023/03/05 08:21:46;;;;;;;4.93;1.20;;;5.30;99.90;;;;;;6155966;23;20048;-81
2023/03/05 08:24:12;;;;;;;7.25;2.13;;;5.00;99.90;;;;;;6179981;23;20192;-80
2023/03/05 08:26:39;;;;;;;8.80;1.48;;;5.10;99.90;;;;;;6154998;23;20012;-81
2023/03/05 08:29:09;;;;;;;5.55;1.08;;;5.30;99.90;;;;;;6180519;23;20347;-81
2023/03/05 08:31:36;;;;;;;4.60;1.75;;;5.20;99.90;;;;;;6155071;23;20028;-79
2023/03/05 08:34:03;;;;;;;5.43;1.17;;;5.30;99.90;;;;;;6156108;23;20028;-83
2023/03/05 08:36:29;;;;;;;4.55;1.15;;;5.30;99.90;;;;;;6155866;23;20099;-80
2023/03/05 08:38:55;;;;;;;7.20;1.27;;;5.40;99.90;;;;;;6158481;23;20052;-79
2023/03/05 08:41:21;;;;;;;3.58;1.42;;;5.50;99.90;;;;;;6158277;23;20012;-80
2023/03/05 08:43:47;;;;;;;6.15;1.30;;;5.60;99.90;;;;;;6135262;23;20020;-80
2023/03/05 08:46:14;;;;;;;6.85;1.30;;;5.50;99.90;;;;;;6158351;23;20095;-79
2023/03/05 08:48:40;;;;;;;7.15;1.10;;;5.70;99.90;;;;;;6159136;23;20016;-78
2023/03/05 08:51:08;;;;;;;7.93;1.23;;;5.80;99.90;;;;;;6181014;23;20330;-81
2023/03/05 08:53:34;;;;;;;6.82;1.55;;;5.90;99.90;;;;;;6155197;23;20490;-77
2023/03/05 08:56:00;;;;;;;4.18;1.00;;;6.00;99.90;;;;;;6180086;23;20028;-80
2023/03/05 08:58:25;;;;;;;6.78;1.30;;;6.00;99.90;;;;;;6181906;23;20436;-80
2023/03/05 09:00:51;;;;;;;5.50;1.10;;;6.10;99.90;;;;;;6155509;23;20154;-78
2023/03/05 09:03:17;;;;;;;5.05;0.90;;;6.20;99.90;;;;;;6155415;23;20526;-78
2023/03/05 09:05:43;;;;;;;6.57;1.00;;;6.30;99.90;;;;;;6155530;23;20151;-79
2023/03/05 09:08:10;;;;;;;4.70;1.40;;;6.30;99.90;;;;;;6155585;23;20027;-80
2023/03/05 09:10:35;;;;;;;6.30;1.38;;;6.40;99.90;;;;;;6181019;23;20028;-80
2023/03/05 09:13:02;;;;;;;4.85;1.27;;;6.50;99.90;;;;;;6134742;23;20016;-79
2023/03/05 09:15:29;;;;;;;4.32;1.13;;;6.70;99.90;;;;;;6171199;23;20032;-80
2023/03/05 09:17:55;;;;;;;5.03;1.10;;;6.80;99.90;;;;;;6209016;23;20016;-78
2023/03/05 09:20:21;;;;;;;5.05;0.90;;;6.80;99.90;;;;;;6158439;23;20016;-81
2023/03/05 09:22:49;;;;;;;4.25;0.88;;;7.00;99.90;;;;;;6183002;23;20021;-78
2023/03/05 09:25:15;;;;;;;4.70;1.00;;;7.00;99.90;;;;;;6130984;23;20016;-79
2023/03/05 09:27:42;;;;;;;2.90;0.90;;;7.00;99.90;;;;;;6155425;23;20452;-82
2023/03/05 09:30:10;;;;;;;2.90;0.93;;;7.00;99.90;;;;;;6203764;23;20569;-78
2023/03/05 09:32:36;;;;;;;6.47;1.20;;;7.10;99.90;;;;;;6204841;23;20020;-79
2023/03/05 09:35:02;;;;;;;3.33;0.80;;;7.20;99.90;;;;;;6179563;23;20111;-80
2023/03/05 09:37:28;;;;;;;5.43;1.27;;;7.20;99.90;;;;;;6203999;23;20508;-81
2023/03/05 09:39:55;;;;;;;6.90;1.00;;;7.20;99.90;;;;;;6180447;23;20056;-80
2023/03/05 09:42:27;;;;;;;8.07;1.63;;;7.30;99.90;;;;;;6178567;23;20032;-80
2023/03/05 09:44:59;;;;;;;2.95;1.00;;;7.30;99.90;;;;;;6180219;23;20466;-79
2023/03/05 09:47:43;;;;;;;6.20;1.15;;;7.30;99.90;;;;;;6179436;23;20507;-79
2023/03/05 09:50:13;;;;;;;4.47;1.20;;;7.40;99.90;;;;;;6179273;23;20035;-79
2023/03/05 09:52:52;;;;;;;5.65;1.17;;;7.40;99.90;;;;;;6203039;23;20029;-79
2023/03/05 09:55:26;;;;;;;2.67;0.80;;;7.50;99.90;;;;;;6203968;23;20066;-79
2023/03/05 09:57:57;;;;;;;2.90;0.90;;;7.40;99.90;;;;;;6204782;23;20020;-79
2023/03/05 10:00:28;;;;;;;7.38;1.13;;;7.50;99.90;;;;;;6203760;23;20099;-78
2023/03/05 10:02:58;;;;;;;6.95;1.33;;;7.50;99.90;;;;;;6180525;23;20031;-80
2023/03/05 10:05:45;;;;;;;3.38;0.90;;;7.50;99.90;;;;;;6205231;23;20037;-79
2023/03/05 10:08:15;;;;;;;4.88;0.93;;;7.50;99.90;;;;;;6180352;23;20922;-81
2023/03/05 10:10:48;;;;;;;3.65;1.02;;;7.60;99.90;;;;;;6204604;23;20475;-79
2023/03/05 10:13:26;;;;;;;3.83;1.05;;;7.70;99.90;;;;;;6204969;23;20197;-79
2023/03/05 10:16:03;;;;;;;4.78;1.15;;;7.80;99.90;;;;;;6204475;23;20028;-80
2023/03/05 10:18:33;;;;;;;5.90;1.10;;;7.80;99.90;;;;;;6204300;23;20337;-80
2023/03/05 10:21:14;;;;;;;3.92;1.05;;;7.90;99.90;;;;;;6204639;23;20032;-79
2023/03/05 10:24:14;;;;;;;7.38;1.20;;;7.90;99.90;;;;;;6205744;23;20021;-79
2023/03/05 10:26:51;;;;;;;2.53;0.80;;;7.90;99.90;;;;;;6206164;23;20063;-80
2023/03/05 10:29:29;;;;;;;6.22;0.95;;;7.90;99.90;;;;;;6206755;23;20075;-81
2023/03/05 10:32:19;;;;;;;4.57;0.90;;;8.00;99.90;;;;;;6206232;23;20026;-79
2023/03/05 10:35:04;;;;;;;5.25;1.13;;;8.00;99.90;;;;;;6206682;23;20150;-79
2023/03/05 10:37:49;;;;;;;6.22;1.25;;;8.00;99.90;;;;;;6206500;23;20027;-80
2023/03/05 10:40:43;;;;;;;7.13;1.38;;;8.00;99.90;;;;;;6180644;23;20658;-84
2023/03/05 10:43:49;;;;;;;7.00;1.30;;;8.00;99.90;;;;;;6207188;23;20024;-82
2023/03/05 10:46:17;;;;;;;2.70;0.95;;;8.10;99.90;;;;;;6208300;23;20021;-81
2023/03/05 10:48:55;;;;;;;3.92;0.88;;;8.20;99.90;;;;;;6209139;23;20020;-82
2023/03/05 10:51:31;;;;;;;3.78;1.00;;;8.30;99.90;;;;;;6211384;23;20454;-86
2023/03/05 10:54:24;;;;;;;3.75;1.40;;;8.60;99.90;;;;;;6211990;23;20445;-82
2023/03/05 10:57:16;;;;;;;4.72;1.00;;;8.60;99.90;;;;;;6210373;23;20099;-84
2023/03/05 11:00:08;;;;;;;3.33;0.95;;;8.80;99.90;;;;;;6208891;23;20043;-82
2023/03/05 11:02:55;;;;;;;4.63;1.20;;;8.70;99.90;;;;;;6208426;23;20104;-82
2023/03/05 11:05:53;;;;;;;3.63;1.17;;;8.90;99.90;;;;;;6209462;23;20433;-81
2023/03/05 11:08:28;;;;;;;7.53;1.17;;;9.00;99.90;;;;;;6210411;23;20028;-83
2023/03/05 11:11:21;;;;;;;5.57;1.10;;;9.10;99.90;;;;;;6209716;23;20023;-83
2023/03/05 11:14:29;;;;;;;6.47;1.20;;;8.20;99.90;;;;;;6208690;23;20037;-82
2023/03/05 11:17:08;;;;;;;4.07;1.00;;;9.20;99.90;;;;;;6154636;23;20348;-81
2023/03/05 11:19:38;;;;;;;4.00;1.13;;;9.30;99.90;;;;;;6127458;23;20048;-82
2023/03/05 11:22:40;;;;;;;5.07;1.17;;;9.40;99.90;;;;;;6126769;23;20091;-80
2023/03/05 11:25:15;;;;;;;5.38;1.02;;;9.50;99.90;;;;;;6127682;23;20025;-79
2023/03/05 11:27:53;;;;;;;4.93;1.08;;;8.30;99.90;;;;;;6151519;23;20132;-81
2023/03/05 11:30:27;;;;;;;3.70;0.90;;;9.70;99.90;;;;;;6152306;23;20399;-80
2023/03/05 11:33:12;;;;;;;4.15;1.08;;;10.00;99.90;;;;;;6152656;23;20013;-83
2023/03/05 11:35:40;;;;;;;4.18;1.13;;;10.10;99.90;;;;;;6127359;23;20048;-82
2023/03/05 11:38:23;;;;;;;4.25;1.13;;;10.40;99.90;;;;;;6127384;23;20059;-80
2023/03/05 11:40:50;;;;;;;2.90;1.05;;;10.50;99.90;;;;;;6127603;23;20025;-78
2023/03/05 11:43:19;;;;;;;4.63;1.25;;;10.30;99.90;;;;;;6125802;23;20021;-79
2023/03/05 11:45:49;;;;;;;4.18;1.10;;;10.30;99.90;;;;;;6125189;23;20049;-81
2023/03/05 11:48:19;;;;;;;3.28;0.90;;;10.80;99.90;;;;;;6126915;23;20035;-80
2023/03/05 11:50:51;;;;;;;3.60;1.10;;;11.40;99.90;;;;;;6129064;23;20048;-80
2023/03/05 11:53:27;;;;;;;3.65;0.80;;;12.00;99.90;;;;;;6125318;23;20021;-79
2023/03/05 11:56:21;;;;;;;3.83;0.90;;;12.40;99.90;;;;;;6128028;23;20137;-78
2023/03/05 11:58:52;;;;;;;4.22;1.10;;;12.90;99.90;;;;;;6150653;23;20052;-79
2023/03/05 12:01:23;;;;;;;4.70;1.23;;;13.30;99.90;;;;;;6127218;23;20076;-79
2023/03/05 12:03:50;;;;;;;3.85;1.00;;;13.80;99.90;;;;;;6126953;23;20095;-79
2023/03/05 12:06:35;;;;;;;2.40;0.98;;;14.30;99.90;;;;;;6151166;23;20017;-79
2023/03/05 12:09:08;;;;;;;3.17;1.10;;;14.90;99.90;;;;;;6125802;23;20032;-80
2023/03/05 12:11:45;;;;;;;4.63;1.00;;;15.20;99.90;;;;;;6125594;23;20071;-79
2023/03/05 12:14:57;;;;;;;4.03;1.00;;;15.60;99.70;;;;;;6128305;23;20026;-78
2023/03/05 12:17:32;;;;;;;4.32;0.73;;;16.20;98.90;;;;;;6114871;23;20033;-80
2023/03/05 12:20:17;;;;;;;3.70;0.88;;;16.40;98.10;;;;;;6151808;23;20017;-79
2023/03/05 12:22:44;;;;;;;2.92;0.70;;;16.50;97.10;;;;;;6150971;23;20095;-80
2023/03/05 12:25:45;;;;;;;4.45;1.02;;;16.80;97.20;;;;;;6125765;23;20366;-79
2023/03/05 12:28:27;;;;;;;3.80;1.10;;;17.20;95.40;;;;;;6149806;23;20544;-80
2023/03/05 12:30:55;;;;;;;2.00;1.02;;;17.00;95.60;;;;;;6126418;23;20531;-79
2023/03/05 12:33:40;;;;;;;3.65;0.80;;;16.20;96.00;;;;;;6151106;23;20079;-81
2023/03/05 12:36:33;;;;;;;3.90;0.90;;;14.70;95.40;;;;;;6126461;23;20080;-79
2023/03/05 12:38:59;;;;;;;3.22;1.02;;;13.90;96.40;;;;;;6151412;23;20095;-81
2023/03/05 12:41:28;;;;;;;4.78;1.05;;;13.60;98.70;;;;;;6099797;23;20428;-79
2023/03/05 12:44:06;;;;;;;3.30;1.00;;;13.40;98.90;;;;;;6151514;23;20021;-82
2023/03/05 12:46:42;;;;;;;2.83;0.90;;;13.50;98.40;;;;;;6149462;23;20059;-82
2023/03/05 12:49:21;;;;;;;3.20;0.95;;;13.70;98.80;;;;;;6150646;23;20051;-80
2023/03/05 12:51:55;;;;;;;3.10;0.98;;;13.60;98.30;;;;;;6126677;23;20120;-79
2023/03/05 12:54:39;;;;;;;2.60;0.90;;;13.20;98.10;;;;;;6126978;23;20025;-80
2023/03/05 12:57:14;;;;;;;3.17;0.95;;;13.30;98.70;;;;;;6126047;23;20119;-79
2023/03/05 12:59:54;;;;;;;2.20;0.90;;;13.80;99.00;;;;;;6150198;23;20786;-79
2023/03/05 13:02:31;;;;;;;3.75;1.20;;;14.10;99.00;;;;;;6126302;23;20017;-81
2023/03/05 13:05:07;;;;;;;4.80;1.63;;;13.80;98.90;;;;;;6151554;23;20063;-79
2023/03/05 13:07:33;;;;;;;6.82;1.33;;;14.30;98.30;;;;;;6150322;23;20016;-79
2023/03/05 13:09:59;;;;;;;4.57;1.10;;;14.30;98.80;;;;;;6126141;23;20095;-79